OICS  Sanandaj Airport

Add Bookmark

Iran

Status IATA
Operational SDG
Latitude Longitude
35° 14' 45" N 47° 0' 33" E
35.245899 47.009201
Local (DST + 5) UTC (GMT + 4)
Sep 20, 2014 10:24 Sep 20, 2014 05:54
Sunrise-Sunset Local UTC
Begin Civil Twilight 06:41 02:11
Sunrise 07:07 02:37
Sunset 07:23 14:53
End Civil Twilight 07:48 15:18

Current Weather

METAR Observed VFR
OICS 200500Z 00000KT CAVOK 18/M02 Q1020 Sat, Sep 20, 2014 @ 05:00 UTC
(54 Minutes ago)
Visual Flight Rules
Wind Visibility Clouds Conditions
Calm 10 km or more
  • Clear skies
  • No significant weather
Temperatures Readings Precipitation
Current Temp 18°C (64°F)
Dewpoint -2°C (28°F)
Humidity 26%
Altimeter 30.12"Hg
Sea Level Pressure 1020mb
Field Elevation 4504.59'
None Recorded

Additional weather within a 185.2km radius of OICS

Map ICAO Location
OICC 100.9km S (172°)
OIGK 107.4km S (175°)
OIHH 146.5km E (106°)

24 Hour Weather History

Loading
-

24 Hour Weather Graphs

Loading
-

CheckWX.com is intended as a tool to help pilots better visualize weather data. It is not intended as a substitute for an official weather briefing obtained from a Flight Service Station. CheckWX.com does not meet the FAA requirements for an official pre-flight weather briefing. Therefore, it's important that pilots still call and obtain an official FSS pre-flight weather briefing.